createdAt,value
2023-05-09T00:01:51.794Z,100258.81
2023-05-09T00:04:19.912Z,100250.00
2023-05-09T00:06:49.295Z,100256.53
2023-05-09T00:09:17.260Z,100253.06
2023-05-09T00:11:45.192Z,100256.03
2023-05-09T00:14:14.047Z,100244.38
2023-05-09T00:16:42.039Z,100242.31
2023-05-09T00:19:10.040Z,100243.19
2023-05-09T00:21:37.971Z,100247.88
2023-05-09T00:24:08.091Z,100241.69
2023-05-09T00:26:36.054Z,100246.75
2023-05-09T00:29:04.148Z,100255.31
2023-05-09T00:31:32.128Z,100248.84
2023-05-09T00:34:00.158Z,100248.66
2023-05-09T00:36:28.055Z,100249.50
2023-05-09T00:38:56.014Z,100251.00
2023-05-09T00:41:25.964Z,100252.69
2023-05-09T00:43:53.922Z,100249.69
2023-05-09T00:46:22.312Z,100248.41
2023-05-09T00:48:50.309Z,100250.47
2023-05-09T00:51:18.227Z,100250.47
2023-05-09T00:53:46.302Z,100248.41
2023-05-09T00:56:14.221Z,100252.16
2023-05-09T00:58:43.701Z,100245.06
2023-05-09T01:01:11.683Z,100250.94
2023-05-09T01:03:40.302Z,100258.81
2023-05-09T01:06:11.584Z,100254.56
2023-05-09T01:08:45.499Z,100255.31
2023-05-09T01:11:14.725Z,100219.75
2023-05-09T01:13:53.300Z,100254.13
2023-05-09T01:16:25.274Z,100256.09
2023-05-09T01:18:57.380Z,100248.81
2023-05-09T01:21:28.053Z,100256.84
2023-05-09T01:24:26.202Z,100254.97
2023-05-09T01:27:08.287Z,100246.50
2023-05-09T01:29:38.643Z,100265.13
2023-05-09T01:32:09.756Z,100264.47
2023-05-09T01:34:37.727Z,100265.72
2023-05-09T01:37:06.304Z,100258.16
2023-05-09T01:39:35.047Z,100259.47
2023-05-09T01:42:03.999Z,100268.28
2023-05-09T01:44:33.792Z,100266.59
2023-05-09T01:47:03.121Z,100269.38
2023-05-09T01:49:31.167Z,100281.31
2023-05-09T01:51:59.110Z,100277.56
2023-05-09T01:54:27.275Z,100287.94
2023-05-09T01:56:55.644Z,100286.47
2023-05-09T01:59:23.995Z,100286.06
2023-05-09T02:01:52.628Z,100284.78
2023-05-09T02:04:21.920Z,100288.34
2023-05-09T02:06:50.942Z,100283.09
2023-05-09T02:09:19.125Z,100282.25
2023-05-09T02:11:47.061Z,100287.53
2023-05-09T02:14:15.104Z,100282.56
2023-05-09T02:16:43.112Z,100284.25
2023-05-09T02:19:11.289Z,100282.00
2023-05-09T02:21:40.581Z,100281.34
2023-05-09T02:24:08.899Z,100285.78
2023-05-09T02:26:36.836Z,100282.41
2023-05-09T02:29:04.970Z,100287.63
2023-05-09T02:31:33.072Z,100288.09
2023-05-09T02:34:01.042Z,100291.44
2023-05-09T02:36:29.009Z,100295.66
2023-05-09T02:38:58.308Z,100294.88
2023-05-09T02:41:27.596Z,100298.22
2023-05-09T02:43:55.760Z,100293.88
2023-05-09T02:46:23.778Z,100291.56
2023-05-09T02:48:52.184Z,100294.41
2023-05-09T02:51:20.117Z,100295.25
2023-05-09T02:53:48.049Z,100297.63
2023-05-09T02:56:17.338Z,100298.69
2023-05-09T02:58:51.021Z,100302.75
2023-05-09T03:01:19.134Z,100310.31
2023-05-09T03:03:47.240Z,100311.00
2023-05-09T03:06:15.221Z,100316.69
2023-05-09T03:08:43.153Z,100311.31
2023-05-09T03:11:11.104Z,100326.63
2023-05-09T03:13:40.445Z,100328.00
2023-05-09T03:16:08.430Z,100334.75
2023-05-09T03:18:36.439Z,100339.09
2023-05-09T03:21:04.418Z,100338.91
2023-05-09T03:23:32.329Z,100337.75
2023-05-09T03:26:00.266Z,100345.16
2023-05-09T03:28:29.063Z,100349.53
2023-05-09T03:30:58.357Z,100359.44
2023-05-09T03:33:26.281Z,100359.59
2023-05-09T03:35:54.203Z,100366.34
2023-05-09T03:38:24.298Z,100357.41
2023-05-09T03:40:52.340Z,100367.97
2023-05-09T03:43:20.303Z,100371.69
2023-05-09T03:45:48.204Z,100367.81
2023-05-09T03:48:17.538Z,100370.63
2023-05-09T03:50:45.506Z,100374.00
2023-05-09T03:53:13.476Z,100374.72
2023-05-09T03:55:41.425Z,100381.13
2023-05-09T03:58:09.387Z,100382.81
2023-05-09T04:00:37.282Z,100381.50
2023-05-09T04:03:05.323Z,100386.19
2023-05-09T04:05:35.391Z,100387.22
2023-05-09T04:08:03.493Z,100386.53
2023-05-09T04:10:31.615Z,100395.00
2023-05-09T04:12:59.689Z,100392.47
2023-05-09T04:15:27.732Z,100396.31
2023-05-09T04:17:55.757Z,100399.75
2023-05-09T04:20:23.947Z,100397.31
2023-05-09T04:22:53.252Z,100398.78
2023-05-09T04:25:21.261Z,100402.13
2023-05-09T04:27:49.266Z,100404.16
2023-05-09T04:30:17.607Z,100406.69
2023-05-09T04:32:46.240Z,100404.66
2023-05-09T04:35:15.665Z,100407.06
2023-05-09T04:37:44.860Z,100403.66
2023-05-09T04:40:14.662Z,100401.81
2023-05-09T04:42:42.622Z,100411.63
2023-05-09T04:45:11.981Z,100414.81
2023-05-09T04:47:40.196Z,100412.34
2023-05-09T04:50:09.246Z,100411.50
2023-05-09T04:52:37.229Z,100411.13
2023-05-09T04:55:05.420Z,100410.44
2023-05-09T04:57:34.757Z,100408.09
2023-05-09T05:00:02.716Z,100416.22
2023-05-09T05:02:30.700Z,100414.22
2023-05-09T05:05:10.174Z,100426.00
2023-05-09T05:07:39.322Z,100422.63
2023-05-09T05:10:08.257Z,100419.09
2023-05-09T05:12:37.519Z,100426.84
2023-05-09T05:15:06.360Z,100431.38
2023-05-09T05:17:34.356Z,100429.72
2023-05-09T05:20:03.108Z,100423.47
2023-05-09T05:22:32.697Z,100421.31
2023-05-09T05:25:01.043Z,100424.00
2023-05-09T05:27:29.022Z,100421.31
2023-05-09T05:29:58.336Z,100426.69
2023-05-09T05:32:26.277Z,100425.00
2023-05-09T05:34:54.287Z,100433.09
2023-05-09T05:37:22.233Z,100433.75
2023-05-09T05:39:51.642Z,100429.72
2023-05-09T05:42:19.615Z,100432.06
2023-05-09T05:44:47.575Z,100440.13
2023-05-09T05:47:16.913Z,100438.13
2023-05-09T05:49:45.447Z,100446.88
2023-05-09T05:52:13.577Z,100446.19
2023-05-09T05:54:41.971Z,100445.19
2023-05-09T05:57:09.890Z,100438.44
2023-05-09T05:59:37.817Z,100444.16
2023-05-09T06:02:05.762Z,100444.25
2023-05-09T06:04:35.177Z,100448.09
2023-05-09T06:07:03.068Z,100448.44
2023-05-09T06:09:30.973Z,100441.38
2023-05-09T06:11:58.934Z,100450.13
2023-05-09T06:14:26.873Z,100439.84
2023-05-09T06:16:54.809Z,100439.00
2023-05-09T06:19:22.759Z,100450.13
2023-05-09T06:21:52.078Z,100438.38
2023-05-09T06:24:31.876Z,100442.03
2023-05-09T06:27:02.895Z,100448.09
2023-05-09T06:29:31.071Z,100452.28
2023-05-09T06:31:59.371Z,100452.47
2023-05-09T06:34:27.722Z,100448.78
2023-05-09T06:36:57.035Z,100456.41
2023-05-09T06:39:24.942Z,100462.59
2023-05-09T06:41:52.873Z,100446.44
2023-05-09T06:44:20.777Z,100448.41
2023-05-09T06:46:48.767Z,100452.78
2023-05-09T06:49:16.754Z,100442.28
2023-05-09T06:51:44.650Z,100454.28
2023-05-09T06:54:13.939Z,100446.34
2023-05-09T06:56:41.899Z,100447.72
2023-05-09T06:59:13.306Z,100452.28
2023-05-09T07:01:41.364Z,100446.03
2023-05-09T07:04:09.361Z,100443.69
2023-05-09T07:06:37.344Z,100447.97
2023-05-09T07:09:05.441Z,100450.69
2023-05-09T07:11:37.119Z,100450.81
2023-05-09T07:14:05.169Z,100442.19
2023-05-09T07:16:34.650Z,100453.59
2023-05-09T07:19:04.634Z,100448.09
2023-05-09T07:21:34.386Z,100450.59
2023-05-09T07:24:02.490Z,100452.75
2023-05-09T07:26:30.421Z,100444.31
2023-05-09T07:28:59.713Z,100456.59
2023-05-09T07:31:27.713Z,100455.53
2023-05-09T07:33:55.807Z,100454.84
2023-05-09T07:36:23.753Z,100450.06
2023-05-09T07:38:52.858Z,100454.47
2023-05-09T07:41:20.786Z,100453.94
2023-05-09T07:43:48.811Z,100459.34
2023-05-09T07:46:18.201Z,100456.53
2023-05-09T07:48:46.160Z,100453.09
2023-05-09T07:51:14.126Z,100451.81
2023-05-09T07:53:42.064Z,100454.84
2023-05-09T07:56:10.007Z,100451.63
2023-05-09T07:58:37.958Z,100447.84
2023-05-09T08:01:05.959Z,100455.31
2023-05-09T08:03:35.463Z,100452.66
2023-05-09T08:06:04.143Z,100452.66
2023-05-09T08:08:32.057Z,100464.41
2023-05-09T08:11:00.015Z,100459.91
2023-05-09T08:13:28.126Z,100460.75
2023-05-09T08:15:56.366Z,100459.81
2023-05-09T08:18:24.331Z,100464.38
2023-05-09T08:20:53.649Z,100457.94
2023-05-09T08:23:21.560Z,100458.03
2023-05-09T08:25:49.464Z,100458.69
2023-05-09T08:28:18.047Z,100455.06
2023-05-09T08:30:45.961Z,100460.00
2023-05-09T08:33:13.959Z,100450.84
2023-05-09T08:35:41.938Z,100456.56
2023-05-09T08:38:11.396Z,100458.88
2023-05-09T08:40:39.366Z,100457.59
2023-05-09T08:43:08.003Z,100453.00
2023-05-09T08:45:36.888Z,100452.25
2023-05-09T08:48:04.960Z,100454.78
2023-05-09T08:50:32.932Z,100456.75
2023-05-09T08:53:00.873Z,100456.00
2023-05-09T08:55:30.204Z,100455.53
2023-05-09T08:57:58.874Z,100454.59
2023-05-09T09:00:27.207Z,100457.59
2023-05-09T09:02:55.494Z,100462.25
2023-05-09T09:05:40.053Z,100454.81
2023-05-09T09:08:10.134Z,100448.03
2023-05-09T09:10:41.301Z,100446.22
2023-05-09T09:13:09.280Z,100442.63
2023-05-09T09:15:37.958Z,100447.34
2023-05-09T09:18:09.184Z,100444.06
2023-05-09T09:20:37.135Z,100455.00
2023-05-09T09:23:05.630Z,100444.19
2023-05-09T09:25:33.645Z,100457.47
2023-05-09T09:28:02.946Z,100459.56
2023-05-09T09:30:30.883Z,100459.25
2023-05-09T09:33:00.261Z,100453.88
2023-05-09T09:35:28.198Z,100455.41
2023-05-09T09:37:59.883Z,100444.91
2023-05-09T09:40:28.193Z,100449.56
2023-05-09T09:42:57.312Z,100444.84
2023-05-09T09:45:27.832Z,100450.69
2023-05-09T09:47:55.770Z,100433.91
2023-05-09T09:50:25.511Z,100447.16
2023-05-09T09:52:54.157Z,100447.38
2023-05-09T09:55:23.198Z,100450.00
2023-05-09T09:57:51.439Z,100448.81
2023-05-09T10:00:20.410Z,100436.19
2023-05-09T10:02:50.825Z,100447.88
2023-05-09T10:05:22.639Z,100450.13
2023-05-09T10:07:57.760Z,100454.41
2023-05-09T10:10:27.945Z,100457.13
2023-05-09T10:12:57.291Z,100456.59
2023-05-09T10:15:25.731Z,100445.06
2023-05-09T10:17:56.454Z,100461.19
2023-05-09T10:20:25.135Z,100455.81
2023-05-09T10:22:55.052Z,100457.84
2023-05-09T10:25:23.331Z,100453.16
2023-05-09T10:27:51.251Z,100461.84
2023-05-09T10:30:20.144Z,100463.44
2023-05-09T10:32:50.588Z,100464.75
2023-05-09T10:35:20.773Z,100461.31
2023-05-09T10:37:48.965Z,100458.16
2023-05-09T10:40:17.013Z,100452.25
2023-05-09T10:42:45.175Z,100458.63
2023-05-09T10:45:13.519Z,100453.75
2023-05-09T10:47:42.124Z,100455.81
2023-05-09T10:50:12.189Z,100453.13
2023-05-09T10:53:14.384Z,100459.44
2023-05-09T10:55:50.876Z,100449.09
2023-05-09T10:58:23.024Z,100450.47
2023-05-09T11:00:51.193Z,100448.75
2023-05-09T11:03:19.854Z,100443.22
2023-05-09T11:05:48.342Z,100449.78
2023-05-09T11:08:21.579Z,100450.00
2023-05-09T11:10:49.628Z,100449.69
2023-05-09T11:13:21.455Z,100436.38
2023-05-09T11:16:05.576Z,100438.25
2023-05-09T11:18:33.833Z,100439.38
2023-05-09T11:21:08.587Z,100438.09
2023-05-09T11:23:38.916Z,100441.03
2023-05-09T11:26:07.574Z,100439.34
2023-05-09T11:28:36.694Z,100438.13
2023-05-09T11:31:11.240Z,100440.56
2023-05-09T11:33:39.252Z,100445.06
2023-05-09T11:36:18.066Z,100434.78
2023-05-09T11:38:47.385Z,100440.81
2023-05-09T11:41:15.539Z,100433.28
2023-05-09T11:43:44.015Z,100436.78
2023-05-09T11:46:12.950Z,100437.34
2023-05-09T11:48:41.987Z,100445.63
2023-05-09T11:51:10.305Z,100445.69
2023-05-09T11:53:44.995Z,100443.31
2023-05-09T11:56:14.730Z,100431.53
2023-05-09T11:58:42.649Z,100444.06
2023-05-09T12:01:12.361Z,100436.09
2023-05-09T12:03:44.379Z,100442.38
2023-05-09T12:06:16.153Z,100410.25
2023-05-09T12:08:44.637Z,100437.06
2023-05-09T12:11:14.165Z,100435.00
2023-05-09T12:13:48.677Z,100444.69
2023-05-09T12:16:17.076Z,100443.06
2023-05-09T12:18:48.692Z,100433.88
2023-05-09T12:21:16.861Z,100440.09
2023-05-09T12:23:45.041Z,100427.50
2023-05-09T12:26:14.576Z,100417.03
2023-05-09T12:28:42.621Z,100417.84
2023-05-09T12:31:10.625Z,100418.38
2023-05-09T12:33:38.862Z,100419.00
2023-05-09T12:36:09.579Z,100420.59
2023-05-09T12:38:37.742Z,100423.66
2023-05-09T12:41:09.200Z,100417.16
2023-05-09T12:43:43.907Z,100405.50
2023-05-09T12:46:12.157Z,100410.84
2023-05-09T12:48:40.252Z,100402.94
2023-05-09T12:51:08.232Z,100398.91
2023-05-09T12:53:39.128Z,100399.75
2023-05-09T12:56:13.423Z,100394.84
2023-05-09T12:58:48.588Z,100402.88
2023-05-09T13:01:16.751Z,100400.88
2023-05-09T13:03:45.054Z,100397.38
2023-05-09T13:06:14.021Z,100396.44
2023-05-09T13:08:42.080Z,100399.25
2023-05-09T13:11:16.455Z,100390.41
2023-05-09T13:13:46.739Z,100397.44
2023-05-09T13:16:16.815Z,100393.88
2023-05-09T13:18:45.714Z,100392.34
2023-05-09T13:21:13.700Z,100392.53
2023-05-09T13:23:42.221Z,100390.66
2023-05-09T13:26:10.162Z,100391.50
2023-05-09T13:28:38.112Z,100394.75
2023-05-09T13:31:08.118Z,100388.44
2023-05-09T13:33:36.214Z,100389.59
2023-05-09T13:36:04.221Z,100392.84
2023-05-09T13:38:33.289Z,100384.56
2023-05-09T13:41:01.275Z,100386.16
2023-05-09T13:43:29.180Z,100386.81
2023-05-09T13:45:57.166Z,100388.00
2023-05-09T13:48:26.732Z,100389.53
2023-05-09T13:50:54.643Z,100391.06
2023-05-09T13:53:22.539Z,100381.00
2023-05-09T13:55:50.596Z,100380.38
2023-05-09T13:58:18.986Z,100384.63
2023-05-09T14:00:46.900Z,100385.66
2023-05-09T14:03:14.854Z,100387.25
2023-05-09T14:05:44.213Z,100384.31
2023-05-09T14:08:12.249Z,100387.84
2023-05-09T14:10:40.215Z,100390.94
2023-05-09T14:13:08.426Z,100388.63
2023-05-09T14:15:36.678Z,100395.97
2023-05-09T14:18:04.832Z,100387.59
2023-05-09T14:20:35.298Z,100389.25
2023-05-09T14:23:04.696Z,100394.94
2023-05-09T14:25:32.805Z,100386.03
2023-05-09T14:28:00.778Z,100388.03
2023-05-09T14:30:28.689Z,100382.16
2023-05-09T14:32:56.643Z,100385.97
2023-05-09T14:35:24.636Z,100377.53
2023-05-09T14:37:52.655Z,100390.31
2023-05-09T14:40:22.247Z,100390.66
2023-05-09T14:42:50.201Z,100391.84
2023-05-09T14:45:18.340Z,100389.25
2023-05-09T14:47:46.718Z,100389.34
2023-05-09T14:50:15.896Z,100390.44
2023-05-09T14:52:44.678Z,100387.09
2023-05-09T14:55:12.755Z,100392.13
2023-05-09T14:57:42.088Z,100393.81
2023-05-09T15:00:20.442Z,100384.69
2023-05-09T15:02:49.622Z,100384.13
2023-05-09T15:05:17.848Z,100395.38
2023-05-09T15:07:45.790Z,100390.47
2023-05-09T15:10:13.980Z,100387.47
2023-05-09T15:12:44.048Z,100382.91
2023-05-09T15:15:15.876Z,100382.31
2023-05-09T15:17:44.160Z,100379.81
2023-05-09T15:20:13.572Z,100378.25
2023-05-09T15:22:41.738Z,100381.50
2023-05-09T15:25:10.444Z,100376.09
2023-05-09T15:27:38.509Z,100381.88
2023-05-09T15:30:08.874Z,100375.00
2023-05-09T15:32:40.759Z,100376.56
2023-05-09T15:35:09.734Z,100373.19
2023-05-09T15:37:38.024Z,100377.03
2023-05-09T15:40:07.974Z,100373.31
2023-05-09T15:42:36.297Z,100366.78
2023-05-09T15:45:04.906Z,100373.47
2023-05-09T15:47:34.263Z,100371.41
2023-05-09T15:50:02.238Z,100364.03
2023-05-09T15:52:30.217Z,100359.47
2023-05-09T15:54:58.423Z,100356.22
2023-05-09T15:57:26.433Z,100356.28
2023-05-09T15:59:56.035Z,100358.41
2023-05-09T16:02:24.258Z,100356.00
2023-05-09T16:04:53.778Z,100358.09
2023-05-09T16:07:21.979Z,100352.69
2023-05-09T16:09:50.087Z,100356.00
2023-05-09T16:12:18.029Z,100359.56
2023-05-09T16:14:45.949Z,100358.34
2023-05-09T16:17:14.124Z,100360.50
2023-05-09T16:19:42.433Z,100361.69
2023-05-09T16:22:11.888Z,100370.84
2023-05-09T16:24:39.839Z,100368.72
2023-05-09T16:27:07.792Z,100373.72
2023-05-09T16:29:35.799Z,100377.00
2023-05-09T16:32:03.860Z,100383.88
2023-05-09T16:34:32.028Z,100376.19
2023-05-09T16:37:00.115Z,100380.25
2023-05-09T16:39:29.480Z,100382.78
2023-05-09T16:41:57.955Z,100386.88
2023-05-09T16:44:26.061Z,100392.69
2023-05-09T16:46:54.109Z,100400.13
2023-05-09T16:49:22.108Z,100406.31
2023-05-09T16:51:50.038Z,100406.66
2023-05-09T16:54:17.937Z,100406.75
2023-05-09T16:56:47.342Z,100401.06
2023-05-09T16:59:15.416Z,100404.13
2023-05-09T17:01:43.674Z,100403.28
2023-05-09T17:04:11.828Z,100407.94
2023-05-09T17:06:40.086Z,100396.28
2023-05-09T17:09:08.130Z,100397.31
2023-05-09T17:11:36.117Z,100399.72
2023-05-09T17:14:05.436Z,100399.06
2023-05-09T17:16:35.329Z,100398.06
2023-05-09T17:19:05.261Z,100399.72
2023-05-09T17:21:33.221Z,100399.72
2023-05-09T17:24:02.081Z,100394.16
2023-05-09T17:26:30.675Z,100399.38
2023-05-09T17:28:58.611Z,100399.38
2023-05-09T17:31:28.006Z,100399.72
2023-05-09T17:33:56.967Z,100400.94
2023-05-09T17:36:25.722Z,100410.44
2023-05-09T17:38:53.695Z,100405.88
2023-05-09T17:41:22.052Z,100406.25
2023-05-09T17:43:51.982Z,100398.22
2023-05-09T17:46:19.921Z,100398.91
2023-05-09T17:48:49.302Z,100409.09
2023-05-09T17:51:17.680Z,100412.41
2023-05-09T17:53:45.588Z,100412.16
2023-05-09T17:56:13.522Z,100414.88
2023-05-09T17:58:41.493Z,100421.97
2023-05-09T18:01:09.838Z,100419.91
2023-05-09T18:03:37.961Z,100420.28
2023-05-09T18:06:07.458Z,100431.44
2023-05-09T18:08:36.722Z,100428.06
2023-05-09T18:11:04.685Z,100423.06
2023-05-09T18:13:33.458Z,100423.06
2023-05-09T18:16:01.628Z,100430.38
2023-05-09T18:18:31.035Z,100431.56
2023-05-09T18:20:59.000Z,100434.31
2023-05-09T18:23:28.469Z,100427.91
2023-05-09T18:25:56.669Z,100434.31
2023-05-09T18:28:25.702Z,100441.75
2023-05-09T18:30:54.429Z,100442.75
2023-05-09T18:33:23.298Z,100447.50
2023-05-09T18:35:51.259Z,100446.53
2023-05-09T18:38:19.213Z,100443.16
2023-05-09T18:40:48.546Z,100439.16
2023-05-09T18:43:16.973Z,100441.84
2023-05-09T18:45:48.023Z,100436.06
2023-05-09T18:48:16.414Z,100444.00
2023-05-09T18:50:44.833Z,100442.88
2023-05-09T18:53:12.828Z,100443.25
2023-05-09T18:55:41.091Z,100447.31
2023-05-09T18:58:10.389Z,100446.00
2023-05-09T19:00:39.454Z,100447.69
2023-05-09T19:03:07.681Z,100443.31
2023-05-09T19:05:35.712Z,100454.56
2023-05-09T19:08:04.177Z,100451.38
2023-05-09T19:10:32.491Z,100455.09
2023-05-09T19:13:00.515Z,100449.38
2023-05-09T19:15:30.271Z,100449.00
2023-05-09T19:17:58.263Z,100450.00
2023-05-09T19:20:26.633Z,100443.81
2023-05-09T19:22:54.686Z,100453.41
2023-05-09T19:25:22.687Z,100452.22
2023-05-09T19:27:50.714Z,100456.78
2023-05-09T19:30:19.508Z,100458.81
2023-05-09T19:32:48.861Z,100453.41
2023-05-09T19:35:16.842Z,100453.09
2023-05-09T19:37:44.754Z,100454.13
2023-05-09T19:40:13.094Z,100454.47
2023-05-09T19:42:41.952Z,100454.34
2023-05-09T19:45:10.899Z,100451.81
2023-05-09T19:47:38.861Z,100449.41
2023-05-09T19:50:09.455Z,100448.41
2023-05-09T19:52:37.470Z,100449.25
2023-05-09T19:55:05.982Z,100444.88
2023-05-09T19:57:33.869Z,100437.78
2023-05-09T20:00:01.881Z,100441.03
2023-05-09T20:02:29.886Z,100440.06
2023-05-09T20:04:57.864Z,100436.31
2023-05-09T20:07:27.148Z,100433.28
2023-05-09T20:09:55.184Z,100435.28
2023-05-09T20:12:23.169Z,100437.34
2023-05-09T20:14:51.067Z,100429.59
2023-05-09T20:17:19.290Z,100436.31
2023-05-09T20:19:47.242Z,100443.03
2023-05-09T20:22:15.560Z,100447.44
2023-05-09T20:24:45.008Z,100443.03
2023-05-09T20:27:12.972Z,100449.13
2023-05-09T20:29:40.902Z,100446.03
2023-05-09T20:32:09.195Z,100448.22
2023-05-09T20:34:37.223Z,100440.16
2023-05-09T20:37:05.133Z,100449.56
2023-05-09T20:39:33.066Z,100444.19
2023-05-09T20:42:02.629Z,100443.69
2023-05-09T20:44:30.616Z,100438.13
2023-05-09T20:46:58.595Z,100430.16
2023-05-09T20:49:27.254Z,100426.44
2023-05-09T20:51:56.095Z,100424.75
2023-05-09T20:54:24.163Z,100427.50
2023-05-09T20:56:52.091Z,100428.81
2023-05-09T20:59:21.424Z,100427.16
2023-05-09T21:01:49.544Z,100425.44
2023-05-09T21:04:17.470Z,100424.75
2023-05-09T21:06:45.447Z,100418.69
2023-05-09T21:09:13.372Z,100424.75
2023-05-09T21:11:41.414Z,100417.84
2023-05-09T21:14:09.742Z,100420.09
2023-05-09T21:16:39.070Z,100418.41
2023-05-09T21:19:08.808Z,100417.44
2023-05-09T21:21:36.776Z,100418.44
2023-05-09T21:24:09.146Z,100424.84
2023-05-09T21:26:37.309Z,100418.47
2023-05-09T21:29:05.424Z,100415.41
2023-05-09T21:31:33.563Z,100415.59
2023-05-09T21:34:09.664Z,100413.59
2023-05-09T21:36:38.389Z,100414.47
2023-05-09T21:39:09.158Z,100417.69
2023-05-09T21:41:37.160Z,100427.63
2023-05-09T21:44:05.391Z,100418.88
2023-05-09T21:46:33.916Z,100416.88
2023-05-09T21:49:03.352Z,100411.16
2023-05-09T21:51:31.586Z,100414.19
2023-05-09T21:53:59.531Z,100413.53
2023-05-09T21:56:27.468Z,100412.38
2023-05-09T21:58:55.420Z,100415.06
2023-05-09T22:01:23.453Z,100412.22
2023-05-09T22:03:51.655Z,100417.59
2023-05-09T22:06:21.369Z,100407.84
2023-05-09T22:08:51.108Z,100409.81
2023-05-09T22:11:19.047Z,100402.91
2023-05-09T22:13:46.975Z,100398.72
2023-05-09T22:16:14.976Z,100392.50
2023-05-09T22:18:43.021Z,100393.69
2023-05-09T22:21:10.951Z,100386.59
2023-05-09T22:23:40.227Z,100397.38
2023-05-09T22:26:08.134Z,100397.22
2023-05-09T22:28:36.046Z,100397.03
2023-05-09T22:31:04.351Z,100396.88
2023-05-09T22:33:32.271Z,100398.38
2023-05-09T22:36:00.212Z,100396.34
2023-05-09T22:38:28.168Z,100393.50
2023-05-09T22:40:57.470Z,100396.88
2023-05-09T22:43:28.773Z,100394.34
2023-05-09T22:46:01.839Z,100385.25
2023-05-09T22:48:29.766Z,100383.75
2023-05-09T22:50:57.685Z,100382.19
2023-05-09T22:53:25.636Z,100381.91
2023-05-09T22:55:54.813Z,100368.72
2023-05-09T22:58:24.201Z,100378.50
2023-05-09T23:00:52.174Z,100371.78
2023-05-09T23:03:20.286Z,100372.13
2023-05-09T23:05:48.241Z,100358.31
2023-05-09T23:08:16.183Z,100365.75
2023-05-09T23:10:44.141Z,100360.38
2023-05-09T23:13:12.419Z,100363.38
2023-05-09T23:15:41.955Z,100366.44
2023-05-09T23:18:09.994Z,100356.34
2023-05-09T23:20:38.270Z,100350.97
2023-05-09T23:23:06.211Z,100353.81
2023-05-09T23:25:34.125Z,100343.75
2023-05-09T23:28:02.246Z,100344.94
2023-05-09T23:30:30.199Z,100352.50
2023-05-09T23:32:59.569Z,100348.59
2023-05-09T23:35:27.699Z,100349.97
2023-05-09T23:37:55.607Z,100350.47
2023-05-09T23:40:23.812Z,100345.09
2023-05-09T23:42:51.715Z,100340.72
2023-05-09T23:45:19.819Z,100336.19
2023-05-09T23:47:47.877Z,100335.50
2023-05-09T23:50:17.589Z,100340.56
2023-05-09T23:52:49.226Z,100341.75
2023-05-09T23:55:17.403Z,100336.34
2023-05-09T23:57:45.341Z,100335.19
